BBC Ganges — V2ER7 — position and weather

sailwx.info

Track history (hours):
 
Tides and Currents Weather Stations Pressure Air Temp Water Temp Dewpoint Dewpoint Depression Visibility Wind Speed Wind Dir Waves Ship Positions

BBC Ganges

Last reported at 2018-Apr-19 16:58 UTC. Time now 2018-Apr-19 17:17 UTC.
Position N 51°15' E 004°24'.

Length 143 m; draft 6.8 m.

Type: Cargo ship. MMSI: 305529000.

Date/timePositionNaut miles runAvg speedWind from/ knotsBaromVisibWave heightAir tempDewpointWater temp
2018-Apr-19 16:58N 51°15' E 004°24'0 0.0
2018-Apr-19 16:28N 51°15' E 004°24'0 0.0
2018-Apr-19 15:58N 51°15' E 004°24'0 0.0
2018-Apr-19 15:28N 51°15' E 004°24'0 0.0
2018-Apr-19 14:58N 51°15' E 004°24'0 0.0
2018-Apr-19 14:28N 51°15' E 004°24'0 0.0
2018-Apr-19 13:58N 51°15' E 004°24'0 0.0
2018-Apr-19 13:28N 51°15' E 004°24'0 0.0
2018-Apr-19 12:58N 51°15' E 004°24'0 0.0
2018-Apr-19 12:28N 51°15' E 004°24'0 0.0
2018-Apr-19 11:58N 51°15' E 004°24'0 0.0
2018-Apr-19 11:28N 51°15' E 004°24'0 0.0
2018-Apr-19 10:58N 51°15' E 004°24'0 0.0
2018-Apr-19 10:28N 51°15' E 004°24'0 0.0
2018-Apr-19 09:58N 51°15' E 004°24'0 0.0
2018-Apr-19 09:28N 51°15' E 004°24'0 0.0
2018-Apr-19 08:58N 51°15' E 004°24'0 0.0
2018-Apr-19 08:28N 51°15' E 004°24'0 0.0
2018-Apr-19 07:58N 51°15' E 004°24'0 0.0
2018-Apr-19 07:28N 51°15' E 004°24'0 0.0
2018-Apr-19 06:58N 51°15' E 004°24'0 0.0
2018-Apr-19 06:28N 51°15' E 004°24'0 0.0
2018-Apr-19 05:58N 51°15' E 004°24'0 0.0
2018-Apr-19 05:28N 51°15' E 004°24'0 0.0
2018-Apr-19 04:58N 51°15' E 004°24'0 0.0
2018-Apr-19 04:25N 51°15' E 004°24'0 0.0
2018-Apr-19 03:58N 51°15' E 004°24'0 0.0
2018-Apr-19 03:25N 51°15' E 004°24'0 0.0
2018-Apr-19 02:58N 51°15' E 004°24'0 0.0
2018-Apr-19 02:28N 51°15' E 004°24'0 0.0
2018-Apr-19 01:58N 51°15' E 004°24'0 0.0
2018-Apr-19 01:28N 51°15' E 004°24'0 0.0
2018-Apr-19 00:58N 51°15' E 004°24'0 0.0
2018-Apr-19 00:25N 51°15' E 004°24'0 0.0
2018-Apr-18 23:58N 51°15' E 004°24'0 0.0
2018-Apr-18 23:28N 51°15' E 004°24'0 0.0
2018-Apr-18 22:58N 51°15' E 004°24'0 0.0
2018-Apr-18 22:31N 51°15' E 004°24'1 1.0
2018-Apr-18 22:01N 51°15' E 004°24'2 3.7
2018-Apr-18 21:30N 51°16' E 004°21'1 2.8
2018-Apr-18 21:01N 51°17' E 004°20'0 0.0
2018-Apr-18 20:30N 51°17' E 004°20'0 0.2
2018-Apr-18 20:00N 51°17' E 004°20'2 4.7
2018-Apr-18 19:30N 51°18' E 004°17'4 7.5
2018-Apr-18 19:00N 51°21' E 004°14'3 6.1
2018-Apr-18 18:30N 51°23' E 004°10'4 7.2
2018-Apr-18 17:59N 51°22' E 004°04'4 7.6
2018-Apr-18 17:30N 51°26' E 004°01'3 6.5
2018-Apr-18 17:00N 51°24' E 003°57'610.9
2018-Apr-18 16:30N 51°21' E 003°50'511.1
2018-Apr-18 16:00N 51°24' E 003°43'510.0
2018-Apr-18 15:30N 51°26' E 003°35'4 7.2
2018-Apr-18 15:00N 51°28' E 003°31'510.1
2018-Apr-18 14:30N 51°32' E 003°25'610.7
2018-Apr-18 13:59N 51°37' E 003°22'613.1
2018-Apr-18 13:30N 51°42' E 003°16'510.8
2018-Apr-18 13:00N 51°48' E 003°16'714.4
2018-Apr-18 12:29N 51°55' E 003°18'814.8
2018-Apr-18 11:55N 52°03' E 003°21'714.8
2018-Apr-18 11:25N 52°10' E 003°22'614.9
2018-Apr-18 11:00N 52°17' E 003°24'715.0
2018-Apr-18 10:30N 52°24' E 003°26'915.1
2018-Apr-18 09:54N 52°33' E 003°29'814.6
2018-Apr-18 09:20N 52°40' E 003°36'614.5
2018-Apr-18 08:53N 52°45' E 003°42'714.0
2018-Apr-18 08:24N 52°51' E 003°49'513.6
2018-Apr-18 08:00N 52°55' E 003°55'713.1
2018-Apr-18 07:30N 52°59' E 004°03'612.8
2018-Apr-18 07:00N 53°04' E 004°10'712.5
2018-Apr-18 06:28N 53°08' E 004°19'612.1
2018-Apr-18 06:00N 53°13' E 004°25'612.0
2018-Apr-18 05:30N 53°18' E 004°29'812.0
2018-Apr-18 04:52N 53°25' E 004°33'412.2
2018-Apr-18 04:30N 53°29' E 004°37'713.6
2018-Apr-18 04:00N 53°32' E 004°47'814.4
2018-Apr-18 03:27N 53°34' E 004°60'714.5
2018-Apr-18 03:00N 53°37' E 005°10'8813.3
2018-Apr-17 20:23N 54°01' E 007°34'512.7
2018-Apr-17 20:00N 54°01' E 007°42'713.4
2018-Apr-17 19:30N 54°01' E 007°53'713.8
2018-Apr-17 19:00N 54°01' E 008°05'612.4
2018-Apr-17 18:30N 54°00' E 008°16'816.6
2018-Apr-17 18:00N 53°58' E 008°30'816.3
2018-Apr-17 17:30N 53°54' E 008°41'815.2
2018-Apr-17 17:00N 53°50' E 008°53'816.0
2018-Apr-17 16:30N 53°53' E 009°05'510.4
2018-Apr-17 16:00N 53°53' E 009°14'510.9
2018-Apr-17 15:30N 53°49' E 009°22'510.8
2018-Apr-17 15:00N 53°45' E 009°25'510.8
2018-Apr-17 14:30N 53°40' E 009°31'510.4
2018-Apr-17 14:00N 53°36' E 009°36'5 9.1
2018-Apr-17 13:30N 53°34' E 009°43'4 8.4
2018-Apr-17 13:00N 53°33' E 009°50'3 6.2
2018-Apr-17 12:30N 53°33' E 009°55'3 5.5
2018-Apr-17 12:00N 53°32' E 009°59'0 0.0
2018-Apr-17 11:28N 53°32' E 009°59'0 0.0
2018-Apr-17 10:58N 53°32' E 009°59'0 0.0
2018-Apr-17 10:28N 53°32' E 009°59'0 0.0
2018-Apr-17 09:58N 53°32' E 009°59'0 0.0
2018-Apr-17 09:28N 53°32' E 009°59'0 0.0
2018-Apr-17 08:58N 53°32' E 009°59'0 0.0
2018-Apr-17 08:28N 53°32' E 009°59'0 0.0
2018-Apr-17 07:58N 53°32' E 009°59'0 0.0
2018-Apr-17 07:28N 53°32' E 009°59'0 0.0
2018-Apr-17 06:58N 53°32' E 009°59'0 0.0
2018-Apr-17 06:28N 53°32' E 009°59'0 0.0
2018-Apr-17 05:58N 53°32' E 009°59'0 0.0
2018-Apr-17 05:28N 53°32' E 009°59'0 0.0
2018-Apr-17 04:58N 53°32' E 009°59'0 0.0
2018-Apr-17 04:25N 53°32' E 009°59'0 0.0
2018-Apr-17 03:58N 53°32' E 009°59'0 0.0
2018-Apr-17 03:28N 53°32' E 009°59'0 0.0
2018-Apr-17 02:58N 53°32' E 009°59'0 0.0
2018-Apr-17 02:28N 53°32' E 009°59'0 0.0
2018-Apr-17 01:58N 53°32' E 009°59'0 0.0
2018-Apr-17 01:28N 53°32' E 009°59'0 0.0
2018-Apr-17 00:58N 53°32' E 009°59'0 0.0
2018-Apr-17 00:28N 53°32' E 009°59'0 0.0
2018-Apr-16 23:58N 53°32' E 009°59'0 0.0
2018-Apr-16 23:28N 53°32' E 009°59'0 0.0
2018-Apr-16 22:58N 53°32' E 009°59'0 0.0
2018-Apr-16 22:28N 53°32' E 009°59'0 0.0
2018-Apr-16 21:58N 53°32' E 009°59'0 0.0
2018-Apr-16 21:28N 53°32' E 009°59'0 0.0
2018-Apr-16 20:58N 53°32' E 009°59'0 0.0
2018-Apr-16 20:28N 53°32' E 009°59'0 0.0
2018-Apr-16 19:58N 53°32' E 009°59'0 0.0
2018-Apr-16 19:28N 53°32' E 009°59'0 0.0
2018-Apr-16 18:58N 53°32' E 009°59'0 0.0
2018-Apr-16 18:28N 53°32' E 009°59'0 0.0
2018-Apr-16 17:58N 53°32' E 009°59'0 0.0
2018-Apr-16 17:28N 53°32' E 009°59'0 0.0
2018-Apr-16 16:58N 53°32' E 009°59'0 0.0
2018-Apr-16 16:28N 53°32' E 009°59'0 0.0
2018-Apr-16 15:58N 53°32' E 009°59'0 0.0
2018-Apr-16 15:28N 53°32' E 009°59'0 0.0
2018-Apr-16 14:58N 53°32' E 009°59'0 0.0
2018-Apr-16 14:28N 53°32' E 009°59'0 0.0
2018-Apr-16 13:58N 53°32' E 009°59'0 0.0
2018-Apr-16 13:28N 53°32' E 009°59'0 0.0
2018-Apr-16 12:58N 53°32' E 009°59'0 0.0
2018-Apr-16 12:28N 53°32' E 009°59'0 0.0
2018-Apr-16 11:58N 53°32' E 009°59'0 0.0
2018-Apr-16 11:28N 53°32' E 009°59'0 0.0
2018-Apr-16 10:58N 53°32' E 009°59'0 0.0
2018-Apr-16 10:28N 53°32' E 009°59'0 0.0
2018-Apr-16 09:58N 53°32' E 009°59'0 0.0
2018-Apr-16 09:28N 53°32' E 009°59'0 0.0
2018-Apr-16 08:58N 53°32' E 009°59'0 0.0
2018-Apr-16 08:28N 53°32' E 009°59'0 0.0
2018-Apr-16 07:58N 53°32' E 009°59'0 0.0
2018-Apr-16 07:28N 53°32' E 009°59'0 0.0
2018-Apr-16 06:58N 53°32' E 009°59'0 0.0
2018-Apr-16 06:28N 53°32' E 009°59'0 0.0
2018-Apr-16 05:58N 53°32' E 009°59'0 0.0
2018-Apr-16 05:28N 53°32' E 009°59'0 0.0
2018-Apr-16 04:58N 53°32' E 009°59'0 0.0
2018-Apr-16 04:28N 53°32' E 009°59'0 0.0
2018-Apr-16 03:58N 53°32' E 009°59'0 0.0
2018-Apr-16 03:28N 53°32' E 009°59'0 0.0
2018-Apr-16 02:58N 53°32' E 009°59'0 0.0
2018-Apr-16 02:28N 53°32' E 009°59'0 0.0
2018-Apr-16 01:58N 53°32' E 009°59'0 0.0
2018-Apr-16 01:28N 53°32' E 009°59'0 0.0
2018-Apr-16 00:58N 53°32' E 009°59'0 0.0
2018-Apr-16 00:28N 53°32' E 009°59'0 0.0
2018-Apr-15 23:58N 53°32' E 009°59'0 0.0
2018-Apr-15 23:28N 53°32' E 009°59'0 0.0
2018-Apr-15 22:58N 53°32' E 009°59'0 0.0
2018-Apr-15 22:28N 53°32' E 009°59'0 0.0
2018-Apr-15 21:58N 53°32' E 009°59'0 0.0
2018-Apr-15 21:28N 53°32' E 009°59'0 0.0
2018-Apr-15 20:58N 53°32' E 009°59'0 0.0
2018-Apr-15 20:28N 53°32' E 009°59'0 0.0
2018-Apr-15 19:58N 53°32' E 009°59'0 0.0
2018-Apr-15 19:28N 53°32' E 009°59'0 0.0
2018-Apr-15 18:58N 53°32' E 009°59'0 0.0
2018-Apr-15 18:28N 53°32' E 009°59'0 0.0
2018-Apr-15 17:58N 53°32' E 009°59'0 0.0
2018-Apr-15 17:28N 53°32' E 009°59'0 0.0
2018-Apr-15 16:58N 53°32' E 009°59'0 0.0
2018-Apr-15 16:28N 53°32' E 009°59'0 0.0
2018-Apr-15 15:58N 53°32' E 009°59'0 0.0
2018-Apr-15 15:28N 53°32' E 009°59'0 0.0
2018-Apr-15 14:58N 53°32' E 009°59'0 0.0
2018-Apr-15 14:28N 53°32' E 009°59'0 0.0
2018-Apr-15 13:58N 53°32' E 009°59'0 0.0
2018-Apr-15 13:28N 53°32' E 009°59'0 0.0
2018-Apr-15 12:58N 53°32' E 009°59'0 0.0
2018-Apr-15 12:28N 53°32' E 009°59'0 0.0
2018-Apr-15 11:58N 53°32' E 009°59'0 0.0
2018-Apr-15 11:28N 53°32' E 009°59'0 0.0
2018-Apr-15 10:58N 53°32' E 009°59'0 0.0
2018-Apr-15 10:28N 53°32' E 009°59'0 0.0
2018-Apr-15 09:58N 53°32' E 009°59'0 0.0
2018-Apr-15 09:28N 53°32' E 009°59'0 0.0
2018-Apr-15 08:58N 53°32' E 009°59'0 0.0
2018-Apr-15 08:28N 53°32' E 009°59'0 0.0
2018-Apr-15 07:58N 53°32' E 009°59'0 0.0
2018-Apr-15 07:28N 53°32' E 009°59'0 0.0
2018-Apr-15 06:58N 53°32' E 009°59'0 0.0
2018-Apr-15 06:28N 53°32' E 009°59'0 0.0
2018-Apr-15 05:58N 53°32' E 009°59'0 0.0
2018-Apr-15 05:28N 53°32' E 009°59'0 0.0
2018-Apr-15 04:58N 53°32' E 009°59'0 0.0
2018-Apr-15 04:28N 53°32' E 009°59'0 0.0
2018-Apr-15 03:58N 53°32' E 009°59'0 0.0
2018-Apr-15 03:28N 53°32' E 009°59'0 0.0
2018-Apr-15 02:58N 53°32' E 009°59'0 0.0
2018-Apr-15 02:28N 53°32' E 009°59'0 0.0
2018-Apr-15 01:58N 53°32' E 009°59'0 0.0
2018-Apr-15 01:28N 53°32' E 009°59'0 0.0
2018-Apr-15 00:58N 53°32' E 009°59'0 0.0
2018-Apr-15 00:28N 53°32' E 009°59'0 0.0
2018-Apr-14 23:58N 53°32' E 009°59'0 0.0
2018-Apr-14 23:28N 53°32' E 009°59'0 0.0
2018-Apr-14 22:58N 53°32' E 009°59'0 0.0
2018-Apr-14 22:28N 53°32' E 009°59'0 0.0
2018-Apr-14 21:58N 53°32' E 009°59'0 0.0
2018-Apr-14 21:28N 53°32' E 009°59'0 0.0
2018-Apr-14 20:58N 53°32' E 009°59'0 0.0
2018-Apr-14 20:28N 53°32' E 009°59'0 0.0
2018-Apr-14 19:58N 53°32' E 009°59'0 0.0
2018-Apr-14 19:28N 53°32' E 009°59'0 0.0
2018-Apr-14 18:58N 53°32' E 009°59'0 0.0
2018-Apr-14 18:28N 53°32' E 009°59'0 0.0
2018-Apr-14 17:58N 53°32' E 009°59'0 0.0
2018-Apr-14 17:28N 53°32' E 009°59'0 0.0
2018-Apr-14 16:58N 53°32' E 009°59'0 0.0
2018-Apr-14 16:28N 53°32' E 009°59'0 0.0
2018-Apr-14 15:58N 53°32' E 009°59'0 0.0
2018-Apr-14 15:28N 53°32' E 009°59'0 0.0
2018-Apr-14 14:58N 53°32' E 009°59'0 0.0
2018-Apr-14 14:28N 53°32' E 009°59'0 0.0
2018-Apr-14 13:58N 53°32' E 009°59'0 0.0
2018-Apr-14 13:28N 53°32' E 009°59'0 0.0
2018-Apr-14 12:58N 53°32' E 009°59'0 0.0
2018-Apr-14 12:28N 53°32' E 009°59'0 0.0
2018-Apr-14 11:58N 53°32' E 009°59'0 0.0
2018-Apr-14 11:28N 53°32' E 009°59'0 0.0
2018-Apr-14 10:58N 53°32' E 009°59'0 0.0
2018-Apr-14 10:28N 53°32' E 009°59'0 0.0
2018-Apr-14 09:58N 53°32' E 009°59'0 0.0
2018-Apr-14 09:28N 53°32' E 009°59'0 0.0
2018-Apr-14 08:58N 53°32' E 009°59'0 0.0
2018-Apr-14 08:28N 53°32' E 009°59'0 0.0
2018-Apr-14 07:58N 53°32' E 009°59'0 0.0
2018-Apr-14 07:28N 53°32' E 009°59'0 0.0
2018-Apr-14 06:58N 53°32' E 009°59'0 0.0
2018-Apr-14 06:28N 53°32' E 009°59'0 0.0
2018-Apr-14 05:58N 53°32' E 009°59'0 0.0
2018-Apr-14 05:28N 53°32' E 009°59'0 0.0
2018-Apr-14 04:58N 53°32' E 009°59'0 0.0
2018-Apr-14 04:28N 53°32' E 009°59'0 0.0
2018-Apr-14 03:58N 53°32' E 009°59'0 0.0
2018-Apr-14 03:28N 53°32' E 009°59'0 0.0
2018-Apr-14 02:58N 53°32' E 009°59'0 0.0
2018-Apr-14 02:28N 53°32' E 009°59'0 0.0
2018-Apr-14 01:58N 53°32' E 009°59'0 0.0
2018-Apr-14 01:28N 53°32' E 009°59'0 0.0
2018-Apr-14 00:58N 53°32' E 009°59'0 0.0
2018-Apr-14 00:28N 53°32' E 009°59'0 0.0
2018-Apr-13 23:58N 53°32' E 009°59'0 0.0
2018-Apr-13 23:28N 53°32' E 009°59'0 0.0
2018-Apr-13 22:58N 53°32' E 009°59'0 0.0
2018-Apr-13 22:28N 53°32' E 009°59'0 0.0
2018-Apr-13 21:58N 53°32' E 009°59'0 0.0
2018-Apr-13 21:28N 53°32' E 009°59'0 0.0
2018-Apr-13 20:58N 53°32' E 009°59'0 0.0
2018-Apr-13 20:28N 53°32' E 009°59'0 0.0
2018-Apr-13 19:58N 53°32' E 009°59'0 0.0
2018-Apr-13 19:28N 53°32' E 009°59'0 0.4
2018-Apr-13 18:55N 53°32' E 009°59'0 0.0
2018-Apr-13 18:28N 53°32' E 009°59'0 0.0
2018-Apr-13 17:58N 53°32' E 009°59'0 0.0
2018-Apr-13 17:28N 53°32' E 009°59'0 0.0
2018-Apr-13 16:58N 53°32' E 009°59'0 0.0
2018-Apr-13 16:28N 53°32' E 009°59'0 0.0
2018-Apr-13 15:58N 53°32' E 009°59'0 0.0
2018-Apr-13 15:28N 53°32' E 009°59'0 0.0
2018-Apr-13 14:58N 53°32' E 009°59'0 0.0
2018-Apr-13 14:28N 53°32' E 009°59'0 0.0
2018-Apr-13 13:58N 53°32' E 009°59'0 0.0
2018-Apr-13 13:28N 53°32' E 009°59'0 0.0
2018-Apr-13 12:58N 53°32' E 009°59'0 0.0
2018-Apr-13 12:28N 53°32' E 009°59'0 0.0
2018-Apr-13 11:58N 53°32' E 009°59'0 0.0
2018-Apr-13 11:28N 53°32' E 009°59'0 0.0
2018-Apr-13 10:58N 53°32' E 009°59'0 0.0
2018-Apr-13 10:28N 53°32' E 009°59'0 0.0
2018-Apr-13 09:58N 53°32' E 009°59'0 0.0
2018-Apr-13 09:28N 53°32' E 009°59'0 0.0
2018-Apr-13 08:58N 53°32' E 009°59'0 0.0
2018-Apr-13 08:28N 53°32' E 009°59'0 0.0
2018-Apr-13 07:58N 53°32' E 009°59'0 0.0
2018-Apr-13 07:28N 53°32' E 009°59'0 0.0
2018-Apr-13 06:58N 53°32' E 009°59'0 0.0
2018-Apr-13 06:28N 53°32' E 009°59'0 0.0
2018-Apr-13 05:58N 53°32' E 009°59'0 0.0
2018-Apr-13 05:28N 53°32' E 009°59'0 0.0
2018-Apr-13 04:58N 53°32' E 009°59'0 0.0
2018-Apr-13 04:28N 53°32' E 009°59'0 0.0
2018-Apr-13 03:58N 53°32' E 009°59'0 0.0
2018-Apr-13 03:28N 53°32' E 009°59'0 0.0
2018-Apr-13 02:58N 53°32' E 009°59'0 0.0
2018-Apr-13 02:28N 53°32' E 009°59'0 0.0
2018-Apr-13 01:58N 53°32' E 009°59'0 0.0
2018-Apr-13 01:28N 53°32' E 009°59'0 0.0
2018-Apr-13 00:58N 53°32' E 009°59'0 0.0
2018-Apr-13 00:28N 53°32' E 009°59'0 0.0
2018-Apr-12 23:58N 53°32' E 009°59'0 0.0
2018-Apr-12 23:28N 53°32' E 009°59'0 0.0
2018-Apr-12 22:58N 53°32' E 009°59'0 0.0
2018-Apr-12 22:28N 53°32' E 009°59'0 0.0
2018-Apr-12 21:58N 53°32' E 009°59'0 0.0
2018-Apr-12 21:28N 53°32' E 009°59'0 0.0
2018-Apr-12 20:58N 53°32' E 009°59'0 0.0
2018-Apr-12 20:28N 53°32' E 009°59'0 0.0
2018-Apr-12 19:58N 53°32' E 009°59'0 0.0
2018-Apr-12 19:28N 53°32' E 009°59'0 0.0
2018-Apr-12 18:58N 53°32' E 009°59'0 0.0
2018-Apr-12 18:28N 53°32' E 009°59'0 0.0
2018-Apr-12 17:58N 53°32' E 009°59'0 0.0
2018-Apr-12 17:28N 53°32' E 009°59'0 0.0
2018-Apr-12 16:58N 53°32' E 009°59'0 0.0
2018-Apr-12 16:28N 53°32' E 009°59'0 0.0
2018-Apr-12 15:58N 53°32' E 009°59'0 0.0
2018-Apr-12 15:28N 53°32' E 009°59'0 0.0
2018-Apr-12 15:00N 53°32' E 009°59'0 0.0
2018-Apr-12 14:28N 53°32' E 009°59'0 0.0
2018-Apr-12 14:00N 53°32' E 009°59'0 0.0
2018-Apr-12 13:28N 53°32' E 009°59'0 0.0
2018-Apr-12 12:59N 53°32' E 009°59'0 0.0
2018-Apr-12 12:29N 53°32' E 009°59'0 0.0
2018-Apr-12 11:59N 53°32' E 009°59'0 0.0
2018-Apr-12 11:29N 53°32' E 009°59'0 0.0
2018-Apr-12 10:59N 53°32' E 009°59'0 0.0
2018-Apr-12 10:28N 53°32' E 009°59'0 0.0
2018-Apr-12 09:58N 53°32' E 009°59'0 0.0
2018-Apr-12 09:28N 53°32' E 009°59'0 0.0
2018-Apr-12 08:58N 53°32' E 009°59'0 0.0
2018-Apr-12 08:28N 53°32' E 009°59'0 0.0
2018-Apr-12 07:58N 53°32' E 009°59'0 0.0
2018-Apr-12 07:28N 53°32' E 009°59'0 0.0
2018-Apr-12 06:58N 53°32' E 009°59'0 0.0
2018-Apr-12 06:28N 53°32' E 009°59'0 0.0
2018-Apr-12 05:58N 53°32' E 009°59'0 0.0
2018-Apr-12 05:28N 53°32' E 009°59'0 0.0
2018-Apr-12 04:58N 53°32' E 009°59'0 0.0
2018-Apr-12 04:28N 53°32' E 009°59'0 0.0
2018-Apr-12 03:58N 53°32' E 009°59'0 0.0
2018-Apr-12 03:28N 53°32' E 009°59'0 0.0
2018-Apr-12 02:58N 53°32' E 009°59'0 0.0
2018-Apr-12 02:28N 53°32' E 009°59'0 0.0
2018-Apr-12 01:58N 53°32' E 009°59'0 0.0
2018-Apr-12 01:28N 53°32' E 009°59'0 0.0
2018-Apr-12 00:58N 53°32' E 009°59'0 0.0
2018-Apr-12 00:28N 53°32' E 009°59'0 0.0
2018-Apr-11 23:58N 53°32' E 009°59'0 0.0
2018-Apr-11 23:28N 53°32' E 009°59'0 0.0
2018-Apr-11 22:58N 53°32' E 009°59'0 0.0
2018-Apr-11 22:28N 53°32' E 009°59'0 0.0
2018-Apr-11 21:58N 53°32' E 009°59'0 0.0
2018-Apr-11 21:29N 53°32' E 009°59'0 0.0
2018-Apr-11 20:58N 53°32' E 009°59'0 0.0
2018-Apr-11 20:28N 53°32' E 009°59'0 0.4
2018-Apr-11 20:00N 53°32' E 009°59'2 4.8
2018-Apr-11 19:30N 53°32' E 009°55'5 9.5
2018-Apr-11 19:00N 53°33' E 009°47'611.5
2018-Apr-11 18:30N 53°35' E 009°38'611.7
2018-Apr-11 18:00N 53°39' E 009°31'611.1
2018-Apr-11 17:30N 53°44' E 009°27'611.4
2018-Apr-11 17:00N 53°49' E 009°22'611.2
2018-Apr-11 16:31N 53°53' E 009°15'510.0
2018-Apr-11 16:00N 53°53' E 009°06'4 8.6
2018-Apr-11 15:30N 53°51' E 008°59'5 9.1
2018-Apr-11 15:00N 53°50' E 008°52'4 8.3
2018-Apr-11 14:30N 53°51' E 008°45'5 8.7
2018-Apr-11 13:59N 53°55' E 008°40'5 9.1
2018-Apr-11 13:29N 53°58' E 008°34'510.0
2018-Apr-11 13:00N 53°59' E 008°26'5 9.6
2018-Apr-11 12:29N 53°59' E 008°18'610.2
2018-Apr-11 11:52N 53°59' E 008°07'3 5.7
2018-Apr-11 11:25N 54°01' E 008°10'1 0.0
2018-Apr-10 15:33N 54°02' E 008°11'0 0.6
2018-Apr-10 15:27N 54°02' E 008°11'4 9.2
2018-Apr-10 15:00N 54°01' E 008°04'711.8
2018-Apr-10 14:25N 53°57' E 007°55'410.5
2018-Apr-10 14:00N 53°52' E 007°53'5 9.6
2018-Apr-10 13:26N 53°51' E 008°02'512.1
2018-Apr-10 13:00N 53°48' E 008°09'612.4
2018-Apr-10 12:30N 53°43' E 008°16'713.8
2018-Apr-10 12:00N 53°39' E 008°25'612.2
2018-Apr-10 11:30N 53°34' E 008°32'0 0.9
2018-Apr-10 10:58N 53°34' E 008°33'0 0.6
2018-Apr-10 10:28N 53°35' E 008°33'0 0.3
2018-Apr-10 09:58N 53°35' E 008°33'0 0.0
2018-Apr-10 09:28N 53°35' E 008°33'0 0.0
2018-Apr-10 08:58N 53°35' E 008°33'0 0.0
2018-Apr-10 08:28N 53°35' E 008°33'0 0.0
2018-Apr-10 07:58N 53°35' E 008°33'0 0.0
2018-Apr-10 07:28N 53°35' E 008°33'0 0.0
2018-Apr-10 06:58N 53°35' E 008°33'0 0.0
2018-Apr-10 06:28N 53°35' E 008°33'0 0.0
2018-Apr-10 05:58N 53°35' E 008°33'0 0.0
2018-Apr-10 05:28N 53°35' E 008°33'0 0.0
2018-Apr-10 04:58N 53°35' E 008°33'0 0.0
2018-Apr-10 04:28N 53°35' E 008°33'0 0.0
2018-Apr-10 03:58N 53°35' E 008°33'0 0.0
2018-Apr-10 03:28N 53°35' E 008°33'0 0.0
2018-Apr-10 02:58N 53°35' E 008°33'0 0.0
2018-Apr-10 02:28N 53°35' E 008°33'0 0.0
2018-Apr-10 01:58N 53°35' E 008°33'0 0.0
2018-Apr-10 01:28N 53°35' E 008°33'0 0.0
2018-Apr-10 00:58N 53°35' E 008°33'0 0.0
2018-Apr-10 00:28N 53°35' E 008°33'0 0.0
2018-Apr-09 23:58N 53°35' E 008°33'0 0.0
2018-Apr-09 23:28N 53°35' E 008°33'0 0.0
2018-Apr-09 22:58N 53°35' E 008°33'0 0.0
2018-Apr-09 22:28N 53°35' E 008°33'0 0.0
2018-Apr-09 21:58N 53°35' E 008°33'0 0.0
2018-Apr-09 21:28N 53°35' E 008°33'0 0.0
2018-Apr-09 20:58N 53°35' E 008°33'0 0.0
2018-Apr-09 20:28N 53°35' E 008°33'0 0.0
2018-Apr-09 19:55N 53°35' E 008°33'0 0.0
2018-Apr-09 19:28N 53°35' E 008°33'0 0.0
2018-Apr-09 18:58N 53°35' E 008°33'0 0.0
2018-Apr-09 18:28N 53°35' E 008°33'0 0.0
2018-Apr-09 17:58N 53°35' E 008°33'0 0.0
2018-Apr-09 17:28N 53°35' E 008°33'  
Track history (hours):
 
Tides and Currents Weather Stations Pressure Air Temp Water Temp Dewpoint Dewpoint Depression Visibility Wind Speed Wind Dir Waves Ship Positions

BBC Ganges

Last reported at 2018-Apr-19 16:58 UTC. Time now 2018-Apr-19 17:17 UTC.
Position N 51°15' E 004°24'.

Length 143 m; draft 6.8 m.

Type: Cargo ship. MMSI: 305529000.

Date/timePositionNaut miles runAvg speedWind from/ knotsBaromVisibWave heightAir tempDewpointWater temp
2018-Apr-19 16:58N 51°15' E 004°24'0 0.0
2018-Apr-19 16:28N 51°15' E 004°24'0 0.0
2018-Apr-19 15:58N 51°15' E 004°24'0 0.0
2018-Apr-19 15:28N 51°15' E 004°24'0 0.0
2018-Apr-19 14:58N 51°15' E 004°24'0 0.0
2018-Apr-19 14:28N 51°15' E 004°24'0 0.0
2018-Apr-19 13:58N 51°15' E 004°24'0 0.0
2018-Apr-19 13:28N 51°15' E 004°24'0 0.0
2018-Apr-19 12:58N 51°15' E 004°24'0 0.0
2018-Apr-19 12:28N 51°15' E 004°24'0 0.0
2018-Apr-19 11:58N 51°15' E 004°24'0 0.0
2018-Apr-19 11:28N 51°15' E 004°24'0 0.0
2018-Apr-19 10:58N 51°15' E 004°24'0 0.0
2018-Apr-19 10:28N 51°15' E 004°24'0 0.0
2018-Apr-19 09:58N 51°15' E 004°24'0 0.0
2018-Apr-19 09:28N 51°15' E 004°24'0 0.0
2018-Apr-19 08:58N 51°15' E 004°24'0 0.0
2018-Apr-19 08:28N 51°15' E 004°24'0 0.0
2018-Apr-19 07:58N 51°15' E 004°24'0 0.0
2018-Apr-19 07:28N 51°15' E 004°24'0 0.0
2018-Apr-19 06:58N 51°15' E 004°24'0 0.0
2018-Apr-19 06:28N 51°15' E 004°24'0 0.0
2018-Apr-19 05:58N 51°15' E 004°24'0 0.0
2018-Apr-19 05:28N 51°15' E 004°24'0 0.0
2018-Apr-19 04:58N 51°15' E 004°24'0 0.0
2018-Apr-19 04:25N 51°15' E 004°24'0 0.0
2018-Apr-19 03:58N 51°15' E 004°24'0 0.0
2018-Apr-19 03:25N 51°15' E 004°24'0 0.0
2018-Apr-19 02:58N 51°15' E 004°24'0 0.0
2018-Apr-19 02:28N 51°15' E 004°24'0 0.0
2018-Apr-19 01:58N 51°15' E 004°24'0 0.0
2018-Apr-19 01:28N 51°15' E 004°24'0 0.0
2018-Apr-19 00:58N 51°15' E 004°24'0 0.0
2018-Apr-19 00:25N 51°15' E 004°24'0 0.0
2018-Apr-18 23:58N 51°15' E 004°24'0 0.0
2018-Apr-18 23:28N 51°15' E 004°24'0 0.0
2018-Apr-18 22:58N 51°15' E 004°24'0 0.0
2018-Apr-18 22:31N 51°15' E 004°24'1 1.0
2018-Apr-18 22:01N 51°15' E 004°24'2 3.7
2018-Apr-18 21:30N 51°16' E 004°21'1 2.8
2018-Apr-18 21:01N 51°17' E 004°20'0 0.0
2018-Apr-18 20:30N 51°17' E 004°20'0 0.2
2018-Apr-18 20:00N 51°17' E 004°20'2 4.7
2018-Apr-18 19:30N 51°18' E 004°17'4 7.5
2018-Apr-18 19:00N 51°21' E 004°14'3 6.1
2018-Apr-18 18:30N 51°23' E 004°10'4 7.2
2018-Apr-18 17:59N 51°22' E 004°04'4 7.6
2018-Apr-18 17:30N 51°26' E 004°01'3 6.5
2018-Apr-18 17:00N 51°24' E 003°57'610.9
2018-Apr-18 16:30N 51°21' E 003°50'511.1
2018-Apr-18 16:00N 51°24' E 003°43'510.0
2018-Apr-18 15:30N 51°26' E 003°35'4 7.2
2018-Apr-18 15:00N 51°28' E 003°31'510.1
2018-Apr-18 14:30N 51°32' E 003°25'610.7
2018-Apr-18 13:59N 51°37' E 003°22'613.1
2018-Apr-18 13:30N 51°42' E 003°16'510.8
2018-Apr-18 13:00N 51°48' E 003°16'714.4
2018-Apr-18 12:29N 51°55' E 003°18'814.8
2018-Apr-18 11:55N 52°03' E 003°21'714.8
2018-Apr-18 11:25N 52°10' E 003°22'614.9
2018-Apr-18 11:00N 52°17' E 003°24'715.0
2018-Apr-18 10:30N 52°24' E 003°26'915.1
2018-Apr-18 09:54N 52°33' E 003°29'814.6
2018-Apr-18 09:20N 52°40' E 003°36'614.5
2018-Apr-18 08:53N 52°45' E 003°42'714.0
2018-Apr-18 08:24N 52°51' E 003°49'513.6
2018-Apr-18 08:00N 52°55' E 003°55'713.1
2018-Apr-18 07:30N 52°59' E 004°03'612.8
2018-Apr-18 07:00N 53°04' E 004°10'712.5
2018-Apr-18 06:28N 53°08' E 004°19'612.1
2018-Apr-18 06:00N 53°13' E 004°25'612.0
2018-Apr-18 05:30N 53°18' E 004°29'812.0
2018-Apr-18 04:52N 53°25' E 004°33'412.2
2018-Apr-18 04:30N 53°29' E 004°37'713.6
2018-Apr-18 04:00N 53°32' E 004°47'814.4
2018-Apr-18 03:27N 53°34' E 004°60'714.5
2018-Apr-18 03:00N 53°37' E 005°10'8813.3
2018-Apr-17 20:23N 54°01' E 007°34'512.7
2018-Apr-17 20:00N 54°01' E 007°42'713.4
2018-Apr-17 19:30N 54°01' E 007°53'713.8
2018-Apr-17 19:00N 54°01' E 008°05'612.4
2018-Apr-17 18:30N 54°00' E 008°16'816.6
2018-Apr-17 18:00N 53°58' E 008°30'816.3
2018-Apr-17 17:30N 53°54' E 008°41'815.2
2018-Apr-17 17:00N 53°50' E 008°53'816.0
2018-Apr-17 16:30N 53°53' E 009°05'510.4
2018-Apr-17 16:00N 53°53' E 009°14'510.9
2018-Apr-17 15:30N 53°49' E 009°22'510.8
2018-Apr-17 15:00N 53°45' E 009°25'510.8
2018-Apr-17 14:30N 53°40' E 009°31'510.4
2018-Apr-17 14:00N 53°36' E 009°36'5 9.1
2018-Apr-17 13:30N 53°34' E 009°43'4 8.4
2018-Apr-17 13:00N 53°33' E 009°50'3 6.2
2018-Apr-17 12:30N 53°33' E 009°55'3 5.5
2018-Apr-17 12:00N 53°32' E 009°59'0 0.0
2018-Apr-17 11:28N 53°32' E 009°59'0 0.0
2018-Apr-17 10:58N 53°32' E 009°59'0 0.0
2018-Apr-17 10:28N 53°32' E 009°59'0 0.0
2018-Apr-17 09:58N 53°32' E 009°59'0 0.0
2018-Apr-17 09:28N 53°32' E 009°59'0 0.0
2018-Apr-17 08:58N 53°32' E 009°59'0 0.0
2018-Apr-17 08:28N 53°32' E 009°59'0 0.0
2018-Apr-17 07:58N 53°32' E 009°59'0 0.0
2018-Apr-17 07:28N 53°32' E 009°59'0 0.0
2018-Apr-17 06:58N 53°32' E 009°59'0 0.0
2018-Apr-17 06:28N 53°32' E 009°59'0 0.0
2018-Apr-17 05:58N 53°32' E 009°59'0 0.0
2018-Apr-17 05:28N 53°32' E 009°59'0 0.0
2018-Apr-17 04:58N 53°32' E 009°59'0 0.0
2018-Apr-17 04:25N 53°32' E 009°59'0 0.0
2018-Apr-17 03:58N 53°32' E 009°59'0 0.0
2018-Apr-17 03:28N 53°32' E 009°59'0 0.0
2018-Apr-17 02:58N 53°32' E 009°59'0 0.0
2018-Apr-17 02:28N 53°32' E 009°59'0 0.0
2018-Apr-17 01:58N 53°32' E 009°59'0 0.0
2018-Apr-17 01:28N 53°32' E 009°59'0 0.0
2018-Apr-17 00:58N 53°32' E 009°59'0 0.0
2018-Apr-17 00:28N 53°32' E 009°59'0 0.0
2018-Apr-16 23:58N 53°32' E 009°59'0 0.0
2018-Apr-16 23:28N 53°32' E 009°59'0 0.0
2018-Apr-16 22:58N 53°32' E 009°59'0 0.0
2018-Apr-16 22:28N 53°32' E 009°59'0 0.0
2018-Apr-16 21:58N 53°32' E 009°59'0 0.0
2018-Apr-16 21:28N 53°32' E 009°59'0 0.0
2018-Apr-16 20:58N 53°32' E 009°59'0 0.0
2018-Apr-16 20:28N 53°32' E 009°59'0 0.0
2018-Apr-16 19:58N 53°32' E 009°59'0 0.0
2018-Apr-16 19:28N 53°32' E 009°59'0 0.0
2018-Apr-16 18:58N 53°32' E 009°59'0 0.0
2018-Apr-16 18:28N 53°32' E 009°59'0 0.0
2018-Apr-16 17:58N 53°32' E 009°59'0 0.0
2018-Apr-16 17:28N 53°32' E 009°59'0 0.0
2018-Apr-16 16:58N 53°32' E 009°59'0 0.0
2018-Apr-16 16:28N 53°32' E 009°59'0 0.0
2018-Apr-16 15:58N 53°32' E 009°59'0 0.0
2018-Apr-16 15:28N 53°32' E 009°59'0 0.0
2018-Apr-16 14:58N 53°32' E 009°59'0 0.0
2018-Apr-16 14:28N 53°32' E 009°59'0 0.0
2018-Apr-16 13:58N 53°32' E 009°59'0 0.0
2018-Apr-16 13:28N 53°32' E 009°59'0 0.0
2018-Apr-16 12:58N 53°32' E 009°59'0 0.0
2018-Apr-16 12:28N 53°32' E 009°59'0 0.0
2018-Apr-16 11:58N 53°32' E 009°59'0 0.0
2018-Apr-16 11:28N 53°32' E 009°59'0 0.0
2018-Apr-16 10:58N 53°32' E 009°59'0 0.0
2018-Apr-16 10:28N 53°32' E 009°59'0 0.0
2018-Apr-16 09:58N 53°32' E 009°59'0 0.0
2018-Apr-16 09:28N 53°32' E 009°59'0 0.0
2018-Apr-16 08:58N 53°32' E 009°59'0 0.0
2018-Apr-16 08:28N 53°32' E 009°59'0 0.0
2018-Apr-16 07:58N 53°32' E 009°59'0 0.0
2018-Apr-16 07:28N 53°32' E 009°59'0 0.0
2018-Apr-16 06:58N 53°32' E 009°59'0 0.0
2018-Apr-16 06:28N 53°32' E 009°59'0 0.0
2018-Apr-16 05:58N 53°32' E 009°59'0 0.0
2018-Apr-16 05:28N 53°32' E 009°59'0 0.0
2018-Apr-16 04:58N 53°32' E 009°59'0 0.0
2018-Apr-16 04:28N 53°32' E 009°59'0 0.0
2018-Apr-16 03:58N 53°32' E 009°59'0 0.0
2018-Apr-16 03:28N 53°32' E 009°59'0 0.0
2018-Apr-16 02:58N 53°32' E 009°59'0 0.0
2018-Apr-16 02:28N 53°32' E 009°59'0 0.0
2018-Apr-16 01:58N 53°32' E 009°59'0 0.0
2018-Apr-16 01:28N 53°32' E 009°59'0 0.0
2018-Apr-16 00:58N 53°32' E 009°59'0 0.0
2018-Apr-16 00:28N 53°32' E 009°59'0 0.0
2018-Apr-15 23:58N 53°32' E 009°59'0 0.0
2018-Apr-15 23:28N 53°32' E 009°59'0 0.0
2018-Apr-15 22:58N 53°32' E 009°59'0 0.0
2018-Apr-15 22:28N 53°32' E 009°59'0 0.0
2018-Apr-15 21:58N 53°32' E 009°59'0 0.0
2018-Apr-15 21:28N 53°32' E 009°59'0 0.0
2018-Apr-15 20:58N 53°32' E 009°59'0 0.0
2018-Apr-15 20:28N 53°32' E 009°59'0 0.0
2018-Apr-15 19:58N 53°32' E 009°59'0 0.0
2018-Apr-15 19:28N 53°32' E 009°59'0 0.0
2018-Apr-15 18:58N 53°32' E 009°59'0 0.0
2018-Apr-15 18:28N 53°32' E 009°59'0 0.0
2018-Apr-15 17:58N 53°32' E 009°59'0 0.0
2018-Apr-15 17:28N 53°32' E 009°59'0 0.0
2018-Apr-15 16:58N 53°32' E 009°59'0 0.0
2018-Apr-15 16:28N 53°32' E 009°59'0 0.0
2018-Apr-15 15:58N 53°32' E 009°59'0 0.0
2018-Apr-15 15:28N 53°32' E 009°59'0 0.0
2018-Apr-15 14:58N 53°32' E 009°59'0 0.0
2018-Apr-15 14:28N 53°32' E 009°59'0 0.0
2018-Apr-15 13:58N 53°32' E 009°59'0 0.0
2018-Apr-15 13:28N 53°32' E 009°59'0 0.0
2018-Apr-15 12:58N 53°32' E 009°59'0 0.0
2018-Apr-15 12:28N 53°32' E 009°59'0 0.0
2018-Apr-15 11:58N 53°32' E 009°59'0 0.0
2018-Apr-15 11:28N 53°32' E 009°59'0 0.0
2018-Apr-15 10:58N 53°32' E 009°59'0 0.0
2018-Apr-15 10:28N 53°32' E 009°59'0 0.0
2018-Apr-15 09:58N 53°32' E 009°59'0 0.0
2018-Apr-15 09:28N 53°32' E 009°59'0 0.0
2018-Apr-15 08:58N 53°32' E 009°59'0 0.0
2018-Apr-15 08:28N 53°32' E 009°59'0 0.0
2018-Apr-15 07:58N 53°32' E 009°59'0 0.0
2018-Apr-15 07:28N 53°32' E 009°59'0 0.0
2018-Apr-15 06:58N 53°32' E 009°59'0 0.0
2018-Apr-15 06:28N 53°32' E 009°59'0 0.0
2018-Apr-15 05:58N 53°32' E 009°59'0 0.0
2018-Apr-15 05:28N 53°32' E 009°59'0 0.0
2018-Apr-15 04:58N 53°32' E 009°59'0 0.0
2018-Apr-15 04:28N 53°32' E 009°59'0 0.0
2018-Apr-15 03:58N 53°32' E 009°59'0 0.0
2018-Apr-15 03:28N 53°32' E 009°59'0 0.0
2018-Apr-15 02:58N 53°32' E 009°59'0 0.0
2018-Apr-15 02:28N 53°32' E 009°59'0 0.0
2018-Apr-15 01:58N 53°32' E 009°59'0 0.0
2018-Apr-15 01:28N 53°32' E 009°59'0 0.0
2018-Apr-15 00:58N 53°32' E 009°59'0 0.0
2018-Apr-15 00:28N 53°32' E 009°59'0 0.0
2018-Apr-14 23:58N 53°32' E 009°59'0 0.0
2018-Apr-14 23:28N 53°32' E 009°59'0 0.0
2018-Apr-14 22:58N 53°32' E 009°59'0 0.0
2018-Apr-14 22:28N 53°32' E 009°59'0 0.0
2018-Apr-14 21:58N 53°32' E 009°59'0 0.0
2018-Apr-14 21:28N 53°32' E 009°59'0 0.0
2018-Apr-14 20:58N 53°32' E 009°59'0 0.0
2018-Apr-14 20:28N 53°32' E 009°59'0 0.0
2018-Apr-14 19:58N 53°32' E 009°59'0 0.0
2018-Apr-14 19:28N 53°32' E 009°59'0 0.0
2018-Apr-14 18:58N 53°32' E 009°59'0 0.0
2018-Apr-14 18:28N 53°32' E 009°59'0 0.0
2018-Apr-14 17:58N 53°32' E 009°59'0 0.0
2018-Apr-14 17:28N 53°32' E 009°59'0 0.0
2018-Apr-14 16:58N 53°32' E 009°59'0 0.0
2018-Apr-14 16:28N 53°32' E 009°59'0 0.0
2018-Apr-14 15:58N 53°32' E 009°59'0 0.0
2018-Apr-14 15:28N 53°32' E 009°59'0 0.0
2018-Apr-14 14:58N 53°32' E 009°59'0 0.0
2018-Apr-14 14:28N 53°32' E 009°59'0 0.0
2018-Apr-14 13:58N 53°32' E 009°59'0 0.0
2018-Apr-14 13:28N 53°32' E 009°59'0 0.0
2018-Apr-14 12:58N 53°32' E 009°59'0 0.0
2018-Apr-14 12:28N 53°32' E 009°59'0 0.0
2018-Apr-14 11:58N 53°32' E 009°59'0 0.0
2018-Apr-14 11:28N 53°32' E 009°59'0 0.0
2018-Apr-14 10:58N 53°32' E 009°59'0 0.0
2018-Apr-14 10:28N 53°32' E 009°59'0 0.0
2018-Apr-14 09:58N 53°32' E 009°59'0 0.0
2018-Apr-14 09:28N 53°32' E 009°59'0 0.0
2018-Apr-14 08:58N 53°32' E 009°59'0 0.0
2018-Apr-14 08:28N 53°32' E 009°59'0 0.0
2018-Apr-14 07:58N 53°32' E 009°59'0 0.0
2018-Apr-14 07:28N 53°32' E 009°59'0 0.0
2018-Apr-14 06:58N 53°32' E 009°59'0 0.0
2018-Apr-14 06:28N 53°32' E 009°59'0 0.0
2018-Apr-14 05:58N 53°32' E 009°59'0 0.0
2018-Apr-14 05:28N 53°32' E 009°59'0 0.0
2018-Apr-14 04:58N 53°32' E 009°59'0 0.0
2018-Apr-14 04:28N 53°32' E 009°59'0 0.0
2018-Apr-14 03:58N 53°32' E 009°59'0 0.0
2018-Apr-14 03:28N 53°32' E 009°59'0 0.0
2018-Apr-14 02:58N 53°32' E 009°59'0 0.0
2018-Apr-14 02:28N 53°32' E 009°59'0 0.0
2018-Apr-14 01:58N 53°32' E 009°59'0 0.0
2018-Apr-14 01:28N 53°32' E 009°59'0 0.0
2018-Apr-14 00:58N 53°32' E 009°59'0 0.0
2018-Apr-14 00:28N 53°32' E 009°59'0 0.0
2018-Apr-13 23:58N 53°32' E 009°59'0 0.0
2018-Apr-13 23:28N 53°32' E 009°59'0 0.0
2018-Apr-13 22:58N 53°32' E 009°59'0 0.0
2018-Apr-13 22:28N 53°32' E 009°59'0 0.0
2018-Apr-13 21:58N 53°32' E 009°59'0 0.0
2018-Apr-13 21:28N 53°32' E 009°59'0 0.0
2018-Apr-13 20:58N 53°32' E 009°59'0 0.0
2018-Apr-13 20:28N 53°32' E 009°59'0 0.0
2018-Apr-13 19:58N 53°32' E 009°59'0 0.0
2018-Apr-13 19:28N 53°32' E 009°59'0 0.4
2018-Apr-13 18:55N 53°32' E 009°59'0 0.0
2018-Apr-13 18:28N 53°32' E 009°59'0 0.0
2018-Apr-13 17:58N 53°32' E 009°59'0 0.0
2018-Apr-13 17:28N 53°32' E 009°59'0 0.0
2018-Apr-13 16:58N 53°32' E 009°59'0 0.0
2018-Apr-13 16:28N 53°32' E 009°59'0 0.0
2018-Apr-13 15:58N 53°32' E 009°59'0 0.0
2018-Apr-13 15:28N 53°32' E 009°59'0 0.0
2018-Apr-13 14:58N 53°32' E 009°59'0 0.0
2018-Apr-13 14:28N 53°32' E 009°59'0 0.0
2018-Apr-13 13:58N 53°32' E 009°59'0 0.0
2018-Apr-13 13:28N 53°32' E 009°59'0 0.0
2018-Apr-13 12:58N 53°32' E 009°59'0 0.0
2018-Apr-13 12:28N 53°32' E 009°59'0 0.0
2018-Apr-13 11:58N 53°32' E 009°59'0 0.0
2018-Apr-13 11:28N 53°32' E 009°59'0 0.0
2018-Apr-13 10:58N 53°32' E 009°59'0 0.0
2018-Apr-13 10:28N 53°32' E 009°59'0 0.0
2018-Apr-13 09:58N 53°32' E 009°59'0 0.0
2018-Apr-13 09:28N 53°32' E 009°59'0 0.0
2018-Apr-13 08:58N 53°32' E 009°59'0 0.0
2018-Apr-13 08:28N 53°32' E 009°59'0 0.0
2018-Apr-13 07:58N 53°32' E 009°59'0 0.0
2018-Apr-13 07:28N 53°32' E 009°59'0 0.0
2018-Apr-13 06:58N 53°32' E 009°59'0 0.0
2018-Apr-13 06:28N 53°32' E 009°59'0 0.0
2018-Apr-13 05:58N 53°32' E 009°59'0 0.0
2018-Apr-13 05:28N 53°32' E 009°59'0 0.0
2018-Apr-13 04:58N 53°32' E 009°59'0 0.0
2018-Apr-13 04:28N 53°32' E 009°59'0 0.0
2018-Apr-13 03:58N 53°32' E 009°59'0 0.0
2018-Apr-13 03:28N 53°32' E 009°59'0 0.0
2018-Apr-13 02:58N 53°32' E 009°59'0 0.0
2018-Apr-13 02:28N 53°32' E 009°59'0 0.0
2018-Apr-13 01:58N 53°32' E 009°59'0 0.0
2018-Apr-13 01:28N 53°32' E 009°59'0 0.0
2018-Apr-13 00:58N 53°32' E 009°59'0 0.0
2018-Apr-13 00:28N 53°32' E 009°59'0 0.0
2018-Apr-12 23:58N 53°32' E 009°59'0 0.0
2018-Apr-12 23:28N 53°32' E 009°59'0 0.0
2018-Apr-12 22:58N 53°32' E 009°59'0 0.0
2018-Apr-12 22:28N 53°32' E 009°59'0 0.0
2018-Apr-12 21:58N 53°32' E 009°59'0 0.0
2018-Apr-12 21:28N 53°32' E 009°59'0 0.0
2018-Apr-12 20:58N 53°32' E 009°59'0 0.0
2018-Apr-12 20:28N 53°32' E 009°59'0 0.0
2018-Apr-12 19:58N 53°32' E 009°59'0 0.0
2018-Apr-12 19:28N 53°32' E 009°59'0 0.0
2018-Apr-12 18:58N 53°32' E 009°59'0 0.0
2018-Apr-12 18:28N 53°32' E 009°59'0 0.0
2018-Apr-12 17:58N 53°32' E 009°59'0 0.0
2018-Apr-12 17:28N 53°32' E 009°59'0 0.0
2018-Apr-12 16:58N 53°32' E 009°59'0 0.0
2018-Apr-12 16:28N 53°32' E 009°59'0 0.0
2018-Apr-12 15:58N 53°32' E 009°59'0 0.0
2018-Apr-12 15:28N 53°32' E 009°59'0 0.0
2018-Apr-12 15:00N 53°32' E 009°59'0 0.0
2018-Apr-12 14:28N 53°32' E 009°59'0 0.0
2018-Apr-12 14:00N 53°32' E 009°59'0 0.0
2018-Apr-12 13:28N 53°32' E 009°59'0 0.0
2018-Apr-12 12:59N 53°32' E 009°59'0 0.0
2018-Apr-12 12:29N 53°32' E 009°59'0 0.0
2018-Apr-12 11:59N 53°32' E 009°59'0 0.0
2018-Apr-12 11:29N 53°32' E 009°59'0 0.0
2018-Apr-12 10:59N 53°32' E 009°59'0 0.0
2018-Apr-12 10:28N 53°32' E 009°59'0 0.0
2018-Apr-12 09:58N 53°32' E 009°59'0 0.0
2018-Apr-12 09:28N 53°32' E 009°59'0 0.0
2018-Apr-12 08:58N 53°32' E 009°59'0 0.0
2018-Apr-12 08:28N 53°32' E 009°59'0 0.0
2018-Apr-12 07:58N 53°32' E 009°59'0 0.0
2018-Apr-12 07:28N 53°32' E 009°59'0 0.0
2018-Apr-12 06:58N 53°32' E 009°59'0 0.0
2018-Apr-12 06:28N 53°32' E 009°59'0 0.0
2018-Apr-12 05:58N 53°32' E 009°59'0 0.0
2018-Apr-12 05:28N 53°32' E 009°59'0 0.0
2018-Apr-12 04:58N 53°32' E 009°59'0 0.0
2018-Apr-12 04:28N 53°32' E 009°59'0 0.0
2018-Apr-12 03:58N 53°32' E 009°59'0 0.0
2018-Apr-12 03:28N 53°32' E 009°59'0 0.0
2018-Apr-12 02:58N 53°32' E 009°59'0 0.0
2018-Apr-12 02:28N 53°32' E 009°59'0 0.0
2018-Apr-12 01:58N 53°32' E 009°59'0 0.0
2018-Apr-12 01:28N 53°32' E 009°59'0 0.0
2018-Apr-12 00:58N 53°32' E 009°59'0 0.0
2018-Apr-12 00:28N 53°32' E 009°59'0 0.0
2018-Apr-11 23:58N 53°32' E 009°59'0 0.0
2018-Apr-11 23:28N 53°32' E 009°59'0 0.0
2018-Apr-11 22:58N 53°32' E 009°59'0 0.0
2018-Apr-11 22:28N 53°32' E 009°59'0 0.0
2018-Apr-11 21:58N 53°32' E 009°59'0 0.0
2018-Apr-11 21:29N 53°32' E 009°59'0 0.0
2018-Apr-11 20:58N 53°32' E 009°59'0 0.0
2018-Apr-11 20:28N 53°32' E 009°59'0 0.4
2018-Apr-11 20:00N 53°32' E 009°59'2 4.8
2018-Apr-11 19:30N 53°32' E 009°55'5 9.5
2018-Apr-11 19:00N 53°33' E 009°47'611.5
2018-Apr-11 18:30N 53°35' E 009°38'611.7
2018-Apr-11 18:00N 53°39' E 009°31'611.1
2018-Apr-11 17:30N 53°44' E 009°27'611.4
2018-Apr-11 17:00N 53°49' E 009°22'611.2
2018-Apr-11 16:31N 53°53' E 009°15'510.0
2018-Apr-11 16:00N 53°53' E 009°06'4 8.6
2018-Apr-11 15:30N 53°51' E 008°59'5 9.1
2018-Apr-11 15:00N 53°50' E 008°52'4 8.3
2018-Apr-11 14:30N 53°51' E 008°45'5 8.7
2018-Apr-11 13:59N 53°55' E 008°40'5 9.1
2018-Apr-11 13:29N 53°58' E 008°34'510.0
2018-Apr-11 13:00N 53°59' E 008°26'5 9.6
2018-Apr-11 12:29N 53°59' E 008°18'610.2
2018-Apr-11 11:52N 53°59' E 008°07'3 5.7
2018-Apr-11 11:25N 54°01' E 008°10'1 0.0
2018-Apr-10 15:33N 54°02' E 008°11'0 0.6
2018-Apr-10 15:27N 54°02' E 008°11'4 9.2
2018-Apr-10 15:00N 54°01' E 008°04'711.8
2018-Apr-10 14:25N 53°57' E 007°55'410.5
2018-Apr-10 14:00N 53°52' E 007°53'5 9.6
2018-Apr-10 13:26N 53°51' E 008°02'512.1
2018-Apr-10 13:00N 53°48' E 008°09'612.4
2018-Apr-10 12:30N 53°43' E 008°16'713.8
2018-Apr-10 12:00N 53°39' E 008°25'612.2
2018-Apr-10 11:30N 53°34' E 008°32'0 0.9
2018-Apr-10 10:58N 53°34' E 008°33'0 0.6
2018-Apr-10 10:28N 53°35' E 008°33'0 0.3
2018-Apr-10 09:58N 53°35' E 008°33'0 0.0
2018-Apr-10 09:28N 53°35' E 008°33'0 0.0
2018-Apr-10 08:58N 53°35' E 008°33'0 0.0
2018-Apr-10 08:28N 53°35' E 008°33'0 0.0
2018-Apr-10 07:58N 53°35' E 008°33'0 0.0
2018-Apr-10 07:28N 53°35' E 008°33'0 0.0
2018-Apr-10 06:58N 53°35' E 008°33'0 0.0
2018-Apr-10 06:28N 53°35' E 008°33'0 0.0
2018-Apr-10 05:58N 53°35' E 008°33'0 0.0
2018-Apr-10 05:28N 53°35' E 008°33'0 0.0
2018-Apr-10 04:58N 53°35' E 008°33'0 0.0
2018-Apr-10 04:28N 53°35' E 008°33'0 0.0
2018-Apr-10 03:58N 53°35' E 008°33'0 0.0
2018-Apr-10 03:28N 53°35' E 008°33'0 0.0
2018-Apr-10 02:58N 53°35' E 008°33'0 0.0
2018-Apr-10 02:28N 53°35' E 008°33'0 0.0
2018-Apr-10 01:58N 53°35' E 008°33'0 0.0
2018-Apr-10 01:28N 53°35' E 008°33'0 0.0
2018-Apr-10 00:58N 53°35' E 008°33'0 0.0
2018-Apr-10 00:28N 53°35' E 008°33'0 0.0
2018-Apr-09 23:58N 53°35' E 008°33'0 0.0
2018-Apr-09 23:28N 53°35' E 008°33'0 0.0
2018-Apr-09 22:58N 53°35' E 008°33'0 0.0
2018-Apr-09 22:28N 53°35' E 008°33'0 0.0
2018-Apr-09 21:58N 53°35' E 008°33'0 0.0
2018-Apr-09 21:28N 53°35' E 008°33'0 0.0
2018-Apr-09 20:58N 53°35' E 008°33'0 0.0
2018-Apr-09 20:28N 53°35' E 008°33'0 0.0
2018-Apr-09 19:55N 53°35' E 008°33'0 0.0
2018-Apr-09 19:28N 53°35' E 008°33'0 0.0
2018-Apr-09 18:58N 53°35' E 008°33'0 0.0
2018-Apr-09 18:28N 53°35' E 008°33'0 0.0
2018-Apr-09 17:58N 53°35' E 008°33'0 0.0
2018-Apr-09 17:28N 53°35' E 008°33'  

Dump ship's entire track history